Pagrindinis puslapis
METAR-TAF:

METAR-TAF

Oro uostai :

Mostaras, Bosnija ir Hercegovina

platuma: 43-21N, ilguma: 017-48E, Aukštis: 108 m

Dabartinis oras

Ataskaita buvo paskelbta 41 minutes, ne 18:00 UTC
Vėjas 4 kt iš Vakarų, svyruoja nuo Pietų ir Vakarų/Šiaurės Vakarų
Temperatūra 19°C
Drėgmė 32%
Slėgis 1017 hPa
Matomumas 10 km arba daugiau
Mažai debesys ne aukštis 5000 ft
Su prošvaistėmis ne aukštis 8000 ft

METAR: LQMO 191800Z 26004KT 180V300 9999 FEW050 BKN080 19/02 Q1017

Laikas: 20:41 (18:41 UTC)

Prognozė

Ataskaita buvo paskelbta 1 valandą ir 41 minutes, ne 17:00 UTC
Prognozė galioja nuo 19 metu 18 UTC su 20 metu 18 UTC
Vėjas 10 kt iš Šiaurės Vakarų
Matomumas 10 km arba daugiau
Išsisklaidę debesys ne aukštis 5500 ft
Laikinai
nuo 19 metu 18 UTC su 20 metu 10 UTC
Vėjas 15 kt iš Šiaurės/Šiaurės Rytų
Tikimybė 40% :
Laikinai
nuo 19 metu 20 UTC su 20 metu 09 UTC
Vėjas 18 kt iš Šiaurės/Šiaurės Rytų su gūsio iki 35 kt

TAF: LQMO 191700Z 1918/2018 32010KT 9999 SCT055 TX25/2013Z TN13/2004Z TEMPO 1918/2010 02015KT PROB40 TEMPO 1920/2009 03018G35KT

Orai ataskaitas ir orų prognozės (METAR, TAF).

turimą stotys yra geltonos ir raudonos taškus žemėlapyje.

Perkelti pele per norėdami pamatyti stoties vardą.

Tada spustelėkite, norėdami matyti oro stebėjimo ir prognozės.

Norėdami pakeisti žemėlapį: spustelėkite ant žalios mygtukų su juodo kryžiaus žemyn,; žalią mygtuką su brūkšneliu, jei norite nutolinti; arba žalių rodyklių gretimoms žemėlapius.


METAR-TAF: